createdAt,value
2018-02-15T00:01:06.756Z,13.20
2018-02-15T00:03:38.641Z,13.53
2018-02-15T00:06:10.509Z,13.17
2018-02-15T00:08:42.419Z,12.60
2018-02-15T00:11:14.286Z,12.67
2018-02-15T00:13:46.174Z,13.30
2018-02-15T00:16:18.046Z,13.40
2018-02-15T00:18:49.928Z,13.00
2018-02-15T00:21:22.830Z,12.20
2018-02-15T00:23:54.702Z,12.93
2018-02-15T00:26:26.574Z,12.53
2018-02-15T00:28:58.519Z,12.57
2018-02-15T00:31:30.662Z,12.37
2018-02-15T00:34:02.544Z,11.77
2018-02-15T00:36:34.413Z,12.70
2018-02-15T00:39:06.289Z,12.20
2018-02-15T00:41:38.512Z,12.87
2018-02-15T00:44:10.399Z,12.80
2018-02-15T00:46:42.268Z,12.07
2018-02-15T00:49:14.148Z,12.20
2018-02-15T00:51:46.255Z,11.23
2018-02-15T00:54:18.143Z,12.07
2018-02-15T00:56:50.278Z,11.20
2018-02-15T00:59:22.447Z,11.73
2018-02-15T01:01:54.615Z,11.40
2018-02-15T01:04:26.518Z,11.43
2018-02-15T01:06:58.649Z,11.03
2018-02-15T01:09:30.526Z,10.80
2018-02-15T01:12:02.391Z,10.97
2018-02-15T01:14:34.291Z,11.13
2018-02-15T01:17:06.154Z,10.80
2018-02-15T01:19:38.038Z,11.67
2018-02-15T01:22:09.906Z,11.27
2018-02-15T01:24:41.790Z,10.20
2018-02-15T01:27:13.658Z,10.93
2018-02-15T01:29:45.543Z,10.73
2018-02-15T01:32:17.423Z,11.57
2018-02-15T01:34:50.079Z,11.17
2018-02-15T01:37:21.951Z,11.00
2018-02-15T01:39:54.146Z,10.93
2018-02-15T01:42:26.015Z,10.43
2018-02-15T01:44:58.624Z,10.03
2018-02-15T01:47:30.494Z,11.63
2018-02-15T01:50:04.194Z,10.20
2018-02-15T01:52:36.079Z,11.43
2018-02-15T01:55:08.737Z,11.07
2018-02-15T01:57:40.609Z,10.57
2018-02-15T02:00:12.496Z,10.53
2018-02-15T02:02:45.131Z,11.07
2018-02-15T02:05:17.019Z,10.80
2018-02-15T02:07:49.655Z,11.30
2018-02-15T02:10:21.543Z,11.17
2018-02-15T02:12:53.419Z,11.57
2018-02-15T02:15:26.063Z,11.43
2018-02-15T02:17:57.930Z,11.57
2018-02-15T02:20:29.811Z,12.07
2018-02-15T02:23:02.454Z,11.93
2018-02-15T02:25:34.578Z,11.70
2018-02-15T02:28:06.458Z,10.83
2018-02-15T02:30:38.459Z,11.80
2018-02-15T02:33:10.342Z,10.77
2018-02-15T02:35:43.085Z,11.10
2018-02-15T02:38:14.967Z,11.93
2018-02-15T02:40:47.722Z,12.33
2018-02-15T02:43:19.594Z,11.07
2018-02-15T02:45:51.480Z,11.77
2018-02-15T02:48:23.342Z,11.73
2018-02-15T02:50:55.259Z,12.27
2018-02-15T02:53:27.231Z,11.77
2018-02-15T02:55:59.891Z,11.57
2018-02-15T02:58:31.772Z,11.77
2018-02-15T03:01:03.651Z,11.63
2018-02-15T03:03:35.515Z,11.80
2018-02-15T03:06:07.399Z,12.47
2018-02-15T03:08:39.263Z,12.47
2018-02-15T03:11:11.147Z,11.63
2018-02-15T03:13:43.019Z,11.40
2018-02-15T03:16:14.932Z,11.77
2018-02-15T03:18:48.243Z,12.50
2018-02-15T03:21:20.136Z,12.67
2018-02-15T03:23:52.007Z,12.57
2018-02-15T03:26:23.894Z,12.77
2018-02-15T03:28:56.531Z,12.63
2018-02-15T03:31:28.419Z,11.57
2018-02-15T03:34:00.289Z,12.23
2018-02-15T03:36:32.175Z,13.67
2018-02-15T03:39:04.814Z,12.90
2018-02-15T03:41:36.698Z,13.67
2018-02-15T03:44:09.334Z,14.03
2018-02-15T03:46:41.218Z,14.10
2018-02-15T03:49:13.095Z,15.13
2018-02-15T03:51:45.738Z,14.77
2018-02-15T03:54:17.657Z,14.70
2018-02-15T03:56:50.282Z,14.60
2018-02-15T03:59:22.387Z,15.50
2018-02-15T04:01:54.276Z,16.30
2018-02-15T04:04:26.142Z,16.87
2018-02-15T04:06:58.059Z,19.53
2018-02-15T04:09:30.715Z,17.40
2018-02-15T04:12:02.607Z,17.77
2018-02-15T04:14:34.474Z,17.63
2018-02-15T04:17:06.367Z,18.10
2018-02-15T04:19:38.235Z,20.07
2018-02-15T04:22:10.138Z,18.77
2018-02-15T04:24:42.775Z,18.37
2018-02-15T04:27:14.651Z,20.73
2018-02-15T04:29:46.523Z,21.20
2018-02-15T04:32:19.172Z,22.00
2018-02-15T04:34:51.806Z,22.47
2018-02-15T04:37:23.690Z,22.73
2018-02-15T04:39:55.562Z,22.80
2018-02-15T04:42:27.444Z,23.00
2018-02-15T04:44:59.321Z,25.80
2018-02-15T04:47:31.964Z,24.67
2018-02-15T04:50:03.827Z,27.07
2018-02-15T04:52:35.710Z,25.90
2018-02-15T04:55:07.606Z,28.57
2018-02-15T04:57:39.499Z,25.37
2018-02-15T05:00:11.380Z,29.30
2018-02-15T05:02:43.258Z,29.17
2018-02-15T05:05:15.912Z,30.00
2018-02-15T05:07:47.794Z,28.53
2018-02-15T05:10:20.435Z,29.17
2018-02-15T05:12:52.387Z,30.20
2018-02-15T05:15:24.263Z,29.43
2018-02-15T05:17:56.146Z,29.80
2018-02-15T05:20:28.025Z,29.47
2018-02-15T05:23:00.682Z,29.87
2018-02-15T05:25:32.610Z,30.53
2018-02-15T05:28:04.508Z,31.07
2018-02-15T05:30:36.430Z,31.50
2018-02-15T05:33:08.321Z,31.27
2018-02-15T05:35:40.190Z,31.70
2018-02-15T05:38:12.846Z,28.77
2018-02-15T05:40:44.711Z,30.57
2018-02-15T05:43:16.594Z,30.20
2018-02-15T05:45:49.226Z,30.20
2018-02-15T05:48:21.112Z,30.37
2018-02-15T05:50:52.989Z,30.97
2018-02-15T05:53:25.722Z,30.80
2018-02-15T05:55:57.592Z,31.37
2018-02-15T05:58:29.484Z,30.63
2018-02-15T06:01:01.357Z,30.77
2018-02-15T06:03:33.998Z,30.70
2018-02-15T06:06:06.111Z,30.57
2018-02-15T06:08:38.023Z,33.17
2018-02-15T06:11:10.241Z,32.73
2018-02-15T06:13:42.124Z,31.00
2018-02-15T06:16:13.999Z,32.73
2018-02-15T06:18:45.971Z,30.53
2018-02-15T06:21:17.826Z,32.27
2018-02-15T06:23:49.711Z,31.33
2018-02-15T06:26:21.576Z,31.83
2018-02-15T06:28:54.226Z,32.43
2018-02-15T06:31:26.095Z,31.40
2018-02-15T06:33:58.048Z,31.63
2018-02-15T06:36:30.005Z,31.50
2018-02-15T06:39:02.125Z,30.00
2018-02-15T06:41:33.993Z,30.67
2018-02-15T06:44:05.886Z,30.10
2018-02-15T06:46:37.775Z,28.73
2018-02-15T06:49:09.671Z,28.67
2018-02-15T06:51:41.542Z,30.07
2018-02-15T06:54:13.427Z,29.43
2018-02-15T06:56:45.314Z,29.67
2018-02-15T06:59:17.212Z,28.90
2018-02-15T07:01:49.094Z,27.70
2018-02-15T07:04:20.982Z,28.93
2018-02-15T07:06:52.851Z,26.77
2018-02-15T07:09:24.731Z,26.40
2018-02-15T07:11:57.373Z,26.80
2018-02-15T07:14:30.771Z,25.87
2018-02-15T07:17:02.638Z,25.03
2018-02-15T07:19:34.527Z,27.40
2018-02-15T07:22:07.170Z,25.03
2018-02-15T07:24:39.058Z,24.47
2018-02-15T07:27:11.962Z,24.93
2018-02-15T07:29:43.843Z,23.63
2018-02-15T07:32:15.711Z,24.53
2018-02-15T07:34:47.592Z,21.83
2018-02-15T07:37:19.475Z,21.90
2018-02-15T07:39:51.368Z,23.07
2018-02-15T07:42:23.255Z,21.50
2018-02-15T07:44:55.141Z,20.67
2018-02-15T07:47:27.010Z,21.30
2018-02-15T07:49:59.207Z,19.17
2018-02-15T07:52:31.074Z,19.77
2018-02-15T07:55:02.964Z,19.07
2018-02-15T07:57:34.831Z,19.50
2018-02-15T08:00:06.721Z,19.47
2018-02-15T08:02:38.814Z,19.43
2018-02-15T08:05:10.701Z,19.63
2018-02-15T08:07:42.576Z,19.97
2018-02-15T08:10:14.458Z,20.47
2018-02-15T08:12:46.364Z,22.47
2018-02-15T08:15:18.267Z,21.43
2018-02-15T08:17:50.155Z,20.23
2018-02-15T08:20:22.034Z,20.23
2018-02-15T08:22:53.904Z,21.20
2018-02-15T08:25:25.789Z,21.47
2018-02-15T08:27:57.874Z,22.73
2018-02-15T08:30:29.762Z,22.70
2018-02-15T08:33:02.387Z,23.77
2018-02-15T08:35:34.275Z,24.83
2018-02-15T08:38:06.489Z,26.63
2018-02-15T08:40:38.402Z,27.77
2018-02-15T08:43:10.304Z,29.77
2018-02-15T08:45:43.034Z,30.20
2018-02-15T08:48:15.263Z,29.33
2018-02-15T08:50:47.142Z,32.13
2018-02-15T08:53:19.011Z,30.73
2018-02-15T08:55:50.895Z,32.57
2018-02-15T08:58:23.099Z,31.10
2018-02-15T09:00:55.010Z,29.43
2018-02-15T09:03:26.880Z,30.40
2018-02-15T09:05:58.767Z,31.97
2018-02-15T09:08:31.394Z,30.67
2018-02-15T09:11:03.283Z,32.20
2018-02-15T09:13:35.159Z,33.97
2018-02-15T09:16:07.072Z,31.57
2018-02-15T09:18:38.943Z,31.17
2018-02-15T09:21:10.818Z,29.20
2018-02-15T09:23:42.697Z,32.50
2018-02-15T09:26:15.351Z,30.27
2018-02-15T09:28:47.235Z,31.03
2018-02-15T09:31:19.134Z,31.60
2018-02-15T09:33:51.007Z,30.43
2018-02-15T09:36:22.894Z,31.63
2018-02-15T09:38:54.767Z,32.13
2018-02-15T09:41:26.651Z,33.63
2018-02-15T09:43:59.542Z,33.40
2018-02-15T09:46:31.423Z,31.90
2018-02-15T09:49:03.294Z,33.90
2018-02-15T09:51:35.194Z,36.30
2018-02-15T09:54:07.071Z,32.23
2018-02-15T09:56:39.734Z,32.10
2018-02-15T09:59:11.630Z,32.53
2018-02-15T10:01:43.515Z,33.30
2018-02-15T10:04:15.386Z,32.30
2018-02-15T10:06:47.267Z,32.03
2018-02-15T10:09:19.146Z,31.60
2018-02-15T10:11:52.047Z,33.07
2018-02-15T10:14:23.934Z,34.37
2018-02-15T10:16:55.818Z,34.23
2018-02-15T10:19:28.537Z,37.40
2018-02-15T10:22:01.183Z,34.43
2018-02-15T10:24:33.387Z,31.90
2018-02-15T10:27:05.275Z,31.80
2018-02-15T10:29:37.150Z,32.67
2018-02-15T10:32:09.035Z,32.93
2018-02-15T10:34:40.902Z,33.17
2018-02-15T10:37:12.783Z,31.97
2018-02-15T10:39:45.414Z,31.33
2018-02-15T10:42:17.308Z,32.60
2018-02-15T10:44:49.956Z,31.47
2018-02-15T10:47:21.843Z,32.13
2018-02-15T10:49:54.483Z,32.73
2018-02-15T10:52:26.363Z,33.00
2018-02-15T10:54:58.323Z,32.93
2018-02-15T10:57:30.218Z,34.60
2018-02-15T11:00:02.853Z,34.27
2018-02-15T11:02:34.734Z,33.83
2018-02-15T11:05:06.827Z,33.60
2018-02-15T11:07:38.719Z,29.87
2018-02-15T11:10:10.591Z,29.40
2018-02-15T11:12:42.474Z,30.97
2018-02-15T11:15:14.342Z,31.53
2018-02-15T11:17:46.219Z,28.87
2018-02-15T11:20:18.851Z,30.63
2018-02-15T11:22:50.734Z,27.20
2018-02-15T11:25:22.606Z,27.67
2018-02-15T11:27:55.300Z,28.17
2018-02-15T11:30:27.930Z,28.10
2018-02-15T11:32:59.814Z,28.20
2018-02-15T11:35:31.691Z,25.60
2018-02-15T11:38:04.343Z,27.90
2018-02-15T11:40:36.210Z,26.63
2018-02-15T11:43:08.122Z,25.00
2018-02-15T11:45:40.268Z,25.97
2018-02-15T11:48:12.142Z,25.10
2018-02-15T11:50:44.014Z,25.17
2018-02-15T11:53:15.937Z,24.07
2018-02-15T11:55:48.578Z,24.33
2018-02-15T11:58:20.467Z,24.50
2018-02-15T12:00:53.367Z,24.00
2018-02-15T12:03:25.252Z,22.73
2018-02-15T12:05:57.118Z,20.87
2018-02-15T12:08:29.009Z,21.73
2018-02-15T12:11:00.993Z,21.53
2018-02-15T12:13:33.634Z,19.83
2018-02-15T12:16:05.507Z,22.27
2018-02-15T12:18:37.388Z,21.00
2018-02-15T12:21:10.090Z,20.63
2018-02-15T12:23:41.975Z,21.70
2018-02-15T12:26:13.844Z,19.83
2018-02-15T12:28:45.768Z,20.10
2018-02-15T12:31:18.409Z,18.83
2018-02-15T12:33:50.645Z,19.83
2018-02-15T12:36:22.535Z,21.30
2018-02-15T12:38:54.639Z,19.43
2018-02-15T12:41:26.814Z,20.70
2018-02-15T12:43:58.707Z,19.50
2018-02-15T12:46:30.590Z,20.47
2018-02-15T12:49:02.475Z,20.33
2018-02-15T12:51:35.111Z,19.63
2018-02-15T12:54:07.231Z,19.67
2018-02-15T12:56:39.105Z,20.90
2018-02-15T12:59:10.995Z,19.13
2018-02-15T13:01:42.966Z,19.43
2018-02-15T13:04:15.084Z,18.70
2018-02-15T13:06:47.004Z,18.03
2018-02-15T13:09:18.851Z,17.17
2018-02-15T13:11:50.727Z,16.77
2018-02-15T13:14:22.611Z,16.97
2018-02-15T13:16:57.040Z,15.77
2018-02-15T13:19:41.663Z,14.20
2018-02-15T13:22:25.611Z,14.77
2018-02-15T13:24:57.806Z,14.80
2018-02-15T13:27:41.779Z,15.10
2018-02-15T13:30:13.664Z,14.97
2018-02-15T13:32:46.307Z,15.37
2018-02-15T13:35:18.202Z,15.77
2018-02-15T13:37:50.077Z,16.37
2018-02-15T13:40:22.282Z,15.07
2018-02-15T13:42:54.142Z,15.77
2018-02-15T13:45:26.302Z,14.93
2018-02-15T13:47:58.191Z,14.73
2018-02-15T13:50:30.076Z,16.00
2018-02-15T13:53:01.954Z,16.53
2018-02-15T13:55:33.846Z,15.90
2018-02-15T13:58:05.938Z,15.53
2018-02-15T14:00:38.074Z,17.10
2018-02-15T14:03:09.951Z,17.63
2018-02-15T14:05:41.831Z,16.80
2018-02-15T14:08:13.728Z,15.30
2018-02-15T14:10:45.614Z,16.87
2018-02-15T14:13:17.490Z,15.97
2018-02-15T14:15:49.375Z,16.43
2018-02-15T14:18:22.033Z,17.03
2018-02-15T14:20:53.911Z,14.90
2018-02-15T14:23:25.782Z,16.00
2018-02-15T14:25:57.695Z,13.93
2018-02-15T14:28:30.327Z,16.10
2018-02-15T14:31:02.240Z,16.43
2018-02-15T14:33:34.139Z,16.07
2018-02-15T14:36:06.028Z,14.93
2018-02-15T14:38:37.949Z,14.67
2018-02-15T14:41:09.823Z,14.23
2018-02-15T14:43:41.701Z,14.30
2018-02-15T14:46:13.592Z,15.20
2018-02-15T14:48:46.482Z,15.83
2018-02-15T14:51:18.740Z,15.30
2018-02-15T14:53:51.199Z,15.70
2018-02-15T14:56:23.111Z,14.67
2018-02-15T14:58:55.252Z,14.43
2018-02-15T15:01:27.152Z,14.43
2018-02-15T15:03:59.018Z,12.97
2018-02-15T15:06:30.903Z,13.80
2018-02-15T15:09:02.767Z,14.07
2018-02-15T15:11:35.422Z,13.20
2018-02-15T15:14:07.535Z,13.93
2018-02-15T15:16:39.423Z,15.03
2018-02-15T15:19:11.329Z,13.80
2018-02-15T15:21:43.216Z,13.53
2018-02-15T15:24:15.094Z,13.70
2018-02-15T15:26:46.975Z,14.43
2018-02-15T15:29:18.843Z,14.93
2018-02-15T15:31:50.727Z,12.80
2018-02-15T15:34:22.597Z,13.67
2018-02-15T15:36:55.239Z,15.23
2018-02-15T15:39:27.131Z,14.30
2018-02-15T15:41:59.027Z,14.77
2018-02-15T15:44:30.899Z,13.20
2018-02-15T15:47:02.999Z,12.57
2018-02-15T15:49:34.871Z,14.73
2018-02-15T15:52:06.763Z,14.27
2018-02-15T15:54:38.639Z,15.37
2018-02-15T15:57:10.551Z,15.00
2018-02-15T15:59:42.424Z,14.37
2018-02-15T16:02:15.073Z,13.93
2018-02-15T16:04:46.950Z,13.33
2018-02-15T16:07:18.847Z,13.90
2018-02-15T16:09:50.726Z,14.63
2018-02-15T16:12:22.908Z,13.63
2018-02-15T16:14:54.743Z,13.37
2018-02-15T16:17:26.622Z,14.17
2018-02-15T16:19:58.770Z,13.33
2018-02-15T16:22:30.647Z,13.90
2018-02-15T16:25:02.777Z,14.00
2018-02-15T16:27:34.948Z,13.57
2018-02-15T16:30:07.113Z,13.13
2018-02-15T16:32:39.014Z,12.07
2018-02-15T16:35:10.887Z,13.23
2018-02-15T16:37:42.773Z,13.30
2018-02-15T16:40:15.418Z,13.17
2018-02-15T16:42:47.536Z,13.33
2018-02-15T16:45:19.421Z,12.30
2018-02-15T16:47:51.563Z,13.03
2018-02-15T16:50:23.727Z,14.00
2018-02-15T16:52:55.638Z,12.40
2018-02-15T16:55:29.147Z,13.07
2018-02-15T16:58:01.044Z,12.10
2018-02-15T17:00:33.675Z,13.20
2018-02-15T17:03:05.558Z,14.17
2018-02-15T17:05:37.782Z,13.63
2018-02-15T17:08:09.666Z,13.87
2018-02-15T17:10:41.550Z,13.20
2018-02-15T17:13:14.208Z,13.77
2018-02-15T17:15:46.078Z,14.07
2018-02-15T17:18:17.958Z,13.07
2018-02-15T17:20:50.598Z,13.70
2018-02-15T17:23:22.487Z,14.83
2018-02-15T17:25:55.241Z,14.07
2018-02-15T17:28:27.118Z,14.73
2018-02-15T17:30:59.051Z,13.80
2018-02-15T17:33:30.975Z,13.33
2018-02-15T17:36:02.878Z,13.57
2018-02-15T17:38:34.881Z,13.07
2018-02-15T17:41:07.510Z,13.97
2018-02-15T17:43:39.397Z,14.03
2018-02-15T17:46:11.339Z,14.67
2018-02-15T17:48:43.253Z,13.80
2018-02-15T17:51:16.027Z,12.77
2018-02-15T17:53:48.919Z,13.17
2018-02-15T17:56:20.807Z,12.27
2018-02-15T17:58:52.690Z,13.30
2018-02-15T18:01:24.563Z,13.17
2018-02-15T18:03:56.786Z,13.83
2018-02-15T18:06:28.931Z,13.53
2018-02-15T18:09:00.826Z,12.70
2018-02-15T18:11:32.819Z,13.80
2018-02-15T18:14:04.711Z,13.47
2018-02-15T18:16:37.600Z,12.77
2018-02-15T18:19:09.512Z,14.47
2018-02-15T18:21:41.462Z,12.43
2018-02-15T18:24:13.362Z,14.77
2018-02-15T18:26:46.112Z,16.97
2018-02-15T18:29:18.057Z,14.80
2018-02-15T18:31:49.933Z,14.90
2018-02-15T18:34:21.816Z,15.13
2018-02-15T18:36:53.763Z,16.73
2018-02-15T18:39:25.870Z,13.67
2018-02-15T18:41:58.039Z,16.60
2018-02-15T18:44:30.202Z,19.27
2018-02-15T18:47:02.393Z,16.53
2018-02-15T18:49:34.279Z,18.33
2018-02-15T18:52:06.243Z,16.60
2018-02-15T18:54:38.217Z,19.03
2018-02-15T18:57:10.422Z,16.50
2018-02-15T18:59:42.335Z,18.77
2018-02-15T19:02:14.466Z,19.00
2018-02-15T19:04:46.382Z,18.77
2018-02-15T19:07:18.273Z,18.07
2018-02-15T19:09:50.194Z,22.93
2018-02-15T19:12:22.138Z,21.47
2018-02-15T19:14:54.027Z,19.53
2018-02-15T19:17:25.924Z,15.50
2018-02-15T19:19:57.813Z,19.17
2018-02-15T19:22:29.683Z,16.70
2018-02-15T19:25:01.580Z,19.60
2018-02-15T19:27:34.226Z,17.27
2018-02-15T19:30:06.114Z,16.57
2018-02-15T19:32:38.765Z,16.57
2018-02-15T19:35:10.670Z,16.90
2018-02-15T19:37:42.547Z,16.97
2018-02-15T19:40:14.442Z,15.00
2018-02-15T19:42:46.659Z,14.97
2018-02-15T19:45:21.794Z,15.23
2018-02-15T19:47:53.678Z,12.23
2018-02-15T19:50:25.583Z,14.53
2018-02-15T19:52:57.522Z,14.40
2018-02-15T19:55:29.534Z,13.83
2018-02-15T19:58:02.191Z,14.23
2018-02-15T20:00:34.126Z,12.90
2018-02-15T20:03:06.360Z,15.43
2018-02-15T20:05:38.261Z,16.70
2018-02-15T20:08:10.234Z,14.43
2018-02-15T20:10:42.124Z,15.23
2018-02-15T20:13:14.967Z,16.37
2018-02-15T20:15:46.918Z,16.10
2018-02-15T20:18:18.778Z,14.90
2018-02-15T20:20:50.663Z,17.37
2018-02-15T20:23:22.579Z,19.30
2018-02-15T20:25:54.559Z,27.50
2018-02-15T20:28:26.432Z,22.33
2018-02-15T20:30:58.378Z,20.67
2018-02-15T20:33:30.251Z,18.33
2018-02-15T20:36:02.219Z,15.67
2018-02-15T20:38:34.962Z,16.37
2018-02-15T20:41:06.842Z,16.10
2018-02-15T20:43:38.714Z,19.03
2018-02-15T20:46:10.625Z,17.37
2018-02-15T20:48:42.526Z,16.70
2018-02-15T20:51:14.410Z,19.60
2018-02-15T20:53:46.290Z,19.43
2018-02-15T20:56:18.943Z,17.27
2018-02-15T20:58:50.815Z,17.93
2018-02-15T21:01:23.471Z,17.70
2018-02-15T21:03:55.527Z,17.33
2018-02-15T21:06:27.650Z,18.63
2018-02-15T21:08:59.522Z,16.47
2018-02-15T21:11:31.411Z,16.97
2018-02-15T21:14:03.534Z,15.97
2018-02-15T21:16:35.707Z,16.00
2018-02-15T21:19:07.579Z,17.43
2018-02-15T21:21:39.462Z,17.33
2018-02-15T21:24:11.351Z,22.90
